Time;durP1;ratioP1;P1;durP2;ratioP2;P2;SDS_P1;SDS_P2;PMS_P1;PMS_P2;Temp;Humidity;BMP_temperature;BMP_pressure;BME280_temperature;BME280_humidity;BME280_pressure;Samples;Min_cycle;Max_cycle;Signal;HPM_P1;HPM_P2
2022/06/18 00:01:36;;;;;;;13.70;8.35;;;;;;;;;;5048527;27;95318;-71
2022/06/18 00:04:07;;;;;;;13.70;7.07;;;;;;;;;;5049498;27;95928;-71
2022/06/18 00:06:36;;;;;;;5.73;3.43;;;;;;;;;;5062106;27;97249;-71
2022/06/18 00:09:03;;;;;;;11.30;3.78;;;;;;;;;;5072370;27;95761;-71
2022/06/18 00:14:15;;;;;;;6.53;3.85;;;;;;;;;;5068904;27;95707;-72
2022/06/18 00:16:41;;;;;;;6.32;3.47;;;;;;;;;;5066334;27;96788;-71
2022/06/18 00:19:08;;;;;;;7.88;3.72;;;;;;;;;;5062480;27;97501;-71
2022/06/18 00:21:34;;;;;;;6.18;3.50;;;;;;;;;;5049502;27;95371;-71
2022/06/18 00:24:01;;;;;;;5.20;3.45;;;;;;;;;;5048422;27;96498;-71
2022/06/18 00:26:30;;;;;;;6.75;3.60;;;;;;;;;;5057485;27;97248;-71
2022/06/18 00:28:56;;;;;;;6.00;4.13;;;;;;;;;;5071978;27;95540;-72
2022/06/18 00:31:23;;;;;;;6.57;3.83;;;;;;;;;;5068551;27;96445;-71
2022/06/18 00:33:49;;;;;;;6.35;3.80;;;;;;;;;;5068225;27;95359;-71
2022/06/18 00:36:17;;;;;;;5.75;3.30;;;;;;;;;;5065805;27;95981;-71
2022/06/18 00:38:45;;;;;;;5.75;3.17;;;;;;;;;;5068775;27;97734;-71
2022/06/18 00:41:16;;;;;;;4.65;2.88;;;;;;;;;;5068881;27;95767;-73
2022/06/18 00:43:45;;;;;;;4.65;2.85;;;;;;;;;;5058031;27;96963;-73
2022/06/18 00:46:14;;;;;;;6.35;3.60;;;;;;;;;;5061573;27;97359;-72
2022/06/18 00:48:48;;;;;;;7.35;4.03;;;;;;;;;;5068051;27;96052;-71
2022/06/18 00:51:34;;;;;;;6.40;4.30;;;;;;;;;;5071260;27;97403;-73
2022/06/18 00:54:09;;;;;;;6.78;4.07;;;;;;;;;;5056603;27;95504;-71
2022/06/18 00:56:56;;;;;;;7.45;4.43;;;;;;;;;;5056964;27;97121;-71
2022/06/18 00:59:26;;;;;;;7.22;4.10;;;;;;;;;;5071525;27;97433;-72
2022/06/18 01:01:53;;;;;;;6.63;4.35;;;;;;;;;;5051236;27;95812;-72
2022/06/18 01:04:22;;;;;;;6.82;4.60;;;;;;;;;;5052281;27;96734;-73
2022/06/18 01:06:48;;;;;;;7.60;4.53;;;;;;;;;;5058182;27;97450;-73
2022/06/18 01:09:17;;;;;;;7.35;3.80;;;;;;;;;;5051616;27;95350;-72
2022/06/18 01:11:45;;;;;;;6.55;3.92;;;;;;;;;;5051775;27;95636;-72
2022/06/18 01:14:13;;;;;;;5.57;3.92;;;;;;;;;;5056386;27;97086;-72
2022/06/18 01:16:40;;;;;;;5.70;3.90;;;;;;;;;;5055263;27;97582;-72
2022/06/18 01:19:09;;;;;;;7.40;3.83;;;;;;;;;;5051330;27;97560;-72
2022/06/18 01:21:40;;;;;;;7.32;4.05;;;;;;;;;;5051116;27;95350;-72
2022/06/18 01:24:11;;;;;;;6.43;4.03;;;;;;;;;;5051688;27;97132;-72
2022/06/18 01:26:37;;;;;;;6.50;4.07;;;;;;;;;;5071598;27;96793;-72
2022/06/18 01:29:04;;;;;;;8.38;3.78;;;;;;;;;;5070874;27;95494;-71
2022/06/18 01:31:30;;;;;;;6.78;3.97;;;;;;;;;;5069196;27;95793;-72
2022/06/18 01:33:57;;;;;;;9.93;4.22;;;;;;;;;;5056502;27;97394;-73
2022/06/18 01:36:26;;;;;;;6.85;3.97;;;;;;;;;;5074581;27;95628;-72
2022/06/18 01:38:52;;;;;;;10.73;4.50;;;;;;;;;;5071733;27;97378;-73
2022/06/18 01:44:12;;;;;;;8.10;3.60;;;;;;;;;;5053558;27;97084;-73
2022/06/18 01:46:41;;;;;;;8.25;3.63;;;;;;;;;;5051019;27;96679;-72
2022/06/18 01:49:10;;;;;;;5.57;3.80;;;;;;;;;;5051138;27;95597;-74
2022/06/18 01:51:37;;;;;;;5.72;3.38;;;;;;;;;;5060513;27;96875;-73
2022/06/18 01:54:10;;;;;;;7.60;3.83;;;;;;;;;;5049934;27;97327;-72
2022/06/18 01:56:41;;;;;;;8.82;3.75;;;;;;;;;;5050218;27;95231;-73
2022/06/18 01:59:10;;;;;;;6.30;3.60;;;;;;;;;;5053425;27;96732;-74
2022/06/18 02:01:39;;;;;;;5.43;3.40;;;;;;;;;;5050945;27;95075;-72
2022/06/18 02:04:06;;;;;;;8.00;3.50;;;;;;;;;;5066939;27;97188;-73
2022/06/18 02:06:34;;;;;;;6.85;3.90;;;;;;;;;;5070064;27;97274;-72
2022/06/18 02:09:01;;;;;;;7.43;3.97;;;;;;;;;;5070650;27;95978;-73
2022/06/18 02:11:27;;;;;;;9.10;3.97;;;;;;;;;;5069807;27;96281;-73
2022/06/18 02:13:58;;;;;;;6.22;3.85;;;;;;;;;;5049766;27;96384;-73
2022/06/18 02:16:26;;;;;;;5.68;3.72;;;;;;;;;;5064083;27;95240;-72
2022/06/18 02:18:52;;;;;;;6.15;3.88;;;;;;;;;;5063176;27;96947;-71
2022/06/18 02:21:23;;;;;;;6.88;4.30;;;;;;;;;;5053425;27;97290;-71
2022/06/18 02:23:53;;;;;;;6.95;4.32;;;;;;;;;;5050938;27;97045;-71
2022/06/18 02:26:20;;;;;;;6.68;3.95;;;;;;;;;;5050403;27;97354;-71
2022/06/18 02:28:47;;;;;;;7.85;4.22;;;;;;;;;;5050535;27;96623;-73
2022/06/18 02:31:21;;;;;;;6.00;3.80;;;;;;;;;;5050166;27;96623;-72
2022/06/18 02:33:50;;;;;;;6.55;4.20;;;;;;;;;;5049954;27;97295;-72
2022/06/18 02:36:43;;;;;;;7.40;4.10;;;;;;;;;;5050594;27;95679;-72
2022/06/18 02:39:09;;;;;;;7.22;4.03;;;;;;;;;;5047292;27;95828;-72
2022/06/18 02:41:38;;;;;;;9.05;4.63;;;;;;;;;;5053299;27;96279;-71
2022/06/18 02:44:04;;;;;;;7.40;4.20;;;;;;;;;;5051484;27;96605;-72
2022/06/18 02:46:34;;;;;;;8.15;4.00;;;;;;;;;;5049470;27;97462;-73
2022/06/18 02:49:02;;;;;;;6.28;3.95;;;;;;;;;;5053719;27;96930;-71
2022/06/18 02:51:30;;;;;;;6.93;3.85;;;;;;;;;;5069161;27;95900;-73
2022/06/18 02:53:57;;;;;;;8.02;4.05;;;;;;;;;;5069854;27;96134;-72
2022/06/18 02:56:24;;;;;;;5.55;3.50;;;;;;;;;;5070387;27;95201;-71
2022/06/18 02:58:51;;;;;;;7.65;4.10;;;;;;;;;;5069169;27;96961;-73
2022/06/18 03:01:26;;;;;;;13.75;5.18;;;;;;;;;;5068735;27;97276;-72
2022/06/18 03:03:54;;;;;;;11.05;5.15;;;;;;;;;;5073211;27;95371;-71
2022/06/18 03:06:23;;;;;;;8.07;4.53;;;;;;;;;;5069003;27;97217;-73
2022/06/18 03:08:49;;;;;;;6.95;4.30;;;;;;;;;;5069973;27;95367;-72
2022/06/18 03:14:05;;;;;;;6.55;3.90;;;;;;;;;;5049737;27;95626;-73
2022/06/18 03:16:32;;;;;;;6.00;4.15;;;;;;;;;;5053247;27;95649;-72
2022/06/18 03:18:59;;;;;;;6.25;3.60;;;;;;;;;;5049180;27;97207;-72
2022/06/18 03:21:38;;;;;;;6.78;3.50;;;;;;;;;;5053602;27;97601;-73
2022/06/18 03:24:05;;;;;;;6.60;3.72;;;;;;;;;;5067978;27;95434;-73
2022/06/18 03:26:32;;;;;;;6.47;3.83;;;;;;;;;;5073017;27;96664;-73
2022/06/18 03:28:58;;;;;;;6.88;3.90;;;;;;;;;;5069661;27;95193;-73
2022/06/18 03:31:25;;;;;;;6.85;3.90;;;;;;;;;;5068610;27;96770;-72
2022/06/18 03:33:51;;;;;;;6.53;3.80;;;;;;;;;;5069246;27;96096;-72
2022/06/18 03:36:19;;;;;;;8.25;3.83;;;;;;;;;;5069424;27;95734;-73
2022/06/18 03:38:46;;;;;;;10.73;4.25;;;;;;;;;;5068638;27;96833;-73
2022/06/18 03:41:13;;;;;;;5.78;3.42;;;;;;;;;;5069722;27;97096;-73
2022/06/18 03:43:39;;;;;;;5.63;3.80;;;;;;;;;;5069014;27;95852;-72
2022/06/18 03:46:08;;;;;;;5.43;3.30;;;;;;;;;;5068996;27;96951;-73
2022/06/18 03:48:42;;;;;;;6.93;3.67;;;;;;;;;;5068242;27;97660;-73
2022/06/18 03:51:09;;;;;;;7.30;3.58;;;;;;;;;;5063198;27;96774;-73
2022/06/18 03:53:35;;;;;;;6.05;3.67;;;;;;;;;;5069508;27;97254;-72
2022/06/18 03:56:02;;;;;;;6.53;3.83;;;;;;;;;;5069634;27;95395;-72
2022/06/18 03:58:28;;;;;;;8.88;3.88;;;;;;;;;;5066297;27;95784;-72
2022/06/18 04:00:54;;;;;;;7.25;3.60;;;;;;;;;;5068979;27;95285;-72
2022/06/18 04:03:21;;;;;;;7.50;3.83;;;;;;;;;;5069811;27;95568;-72
2022/06/18 04:05:47;;;;;;;8.20;3.60;;;;;;;;;;5068660;27;96929;-73
2022/06/18 04:08:14;;;;;;;7.82;3.85;;;;;;;;;;5053245;27;97334;-72
2022/06/18 04:10:41;;;;;;;7.90;3.60;;;;;;;;;;5052272;27;95363;-71
2022/06/18 04:13:07;;;;;;;5.72;3.60;;;;;;;;;;5048373;27;97289;-71
2022/06/18 04:15:34;;;;;;;8.73;3.90;;;;;;;;;;5055253;27;95234;-72
2022/06/18 04:18:00;;;;;;;7.88;4.45;;;;;;;;;;5063418;27;97056;-73
2022/06/18 04:20:32;;;;;;;7.55;3.80;;;;;;;;;;5048284;27;97380;-72
2022/06/18 04:22:59;;;;;;;6.20;3.85;;;;;;;;;;5049287;27;95383;-72
2022/06/18 04:25:25;;;;;;;8.32;3.92;;;;;;;;;;5064851;27;95763;-71
2022/06/18 04:27:54;;;;;;;10.02;4.30;;;;;;;;;;5069226;27;97675;-71
2022/06/18 04:30:26;;;;;;;8.55;3.90;;;;;;;;;;5065684;27;95402;-72
2022/06/18 04:32:52;;;;;;;9.30;4.10;;;;;;;;;;5075258;27;96001;-72
2022/06/18 04:35:19;;;;;;;7.82;4.28;;;;;;;;;;5072383;27;95604;-71
2022/06/18 04:37:46;;;;;;;6.45;3.72;;;;;;;;;;5072737;27;95864;-71
2022/06/18 04:40:14;;;;;;;8.00;3.85;;;;;;;;;;5071915;27;96184;-73
2022/06/18 20:20:46;;;;;;;2.83;1.20;;;;;;;;;;5031820;27;95456;-73
2022/06/18 20:23:13;;;;;;;1.55;0.98;;;;;;;;;;5023207;28;97401;-73
2022/06/18 20:25:41;;;;;;;2.85;1.10;;;;;;;;;;5024194;27;95993;-74
2022/06/18 20:28:08;;;;;;;1.98;1.20;;;;;;;;;;5022565;27;96745;-74
2022/06/18 20:30:34;;;;;;;3.67;1.15;;;;;;;;;;5024141;28;97293;-74
2022/06/18 20:33:01;;;;;;;2.83;1.05;;;;;;;;;;5018341;27;95393;-74
2022/06/18 20:35:29;;;;;;;1.52;1.13;;;;;;;;;;5014153;28;96560;-74
2022/06/18 20:37:56;;;;;;;5.13;1.60;;;;;;;;;;5020686;27;96782;-74
2022/06/18 20:40:23;;;;;;;3.03;1.30;;;;;;;;;;5020121;27;95288;-74
2022/06/18 20:42:50;;;;;;;7.75;1.48;;;;;;;;;;5014515;27;96274;-74
2022/06/18 20:45:17;;;;;;;5.13;1.38;;;;;;;;;;5023933;27;95933;-74
2022/06/18 20:47:44;;;;;;;4.53;1.10;;;;;;;;;;5024264;27;96733;-74
2022/06/18 20:50:11;;;;;;;5.53;1.38;;;;;;;;;;5023116;27;97562;-75
2022/06/18 20:52:38;;;;;;;3.85;1.50;;;;;;;;;;5023361;27;96158;-74
2022/06/18 20:57:55;;;;;;;3.50;1.10;;;;;;;;;;5020156;27;96820;-74
2022/06/18 21:00:23;;;;;;;2.67;1.25;;;;;;;;;;5022644;28;95384;-74
2022/06/18 21:02:49;;;;;;;8.65;1.20;;;;;;;;;;5026810;27;96975;-73
2022/06/18 21:05:18;;;;;;;2.42;1.10;;;;;;;;;;5022493;27;95511;-74
2022/06/18 21:07:45;;;;;;;4.75;1.30;;;;;;;;;;5022976;27;98904;-73
2022/06/18 21:10:12;;;;;;;1.38;0.90;;;;;;;;;;5024843;28;97614;-74
2022/06/18 21:12:39;;;;;;;4.43;1.17;;;;;;;;;;5021864;27;96793;-74
2022/06/18 21:15:07;;;;;;;3.88;1.67;;;;;;;;;;5015011;27;96282;-73
2022/06/18 21:17:34;;;;;;;3.35;1.35;;;;;;;;;;5016996;27;97329;-75
2022/06/18 21:20:00;;;;;;;5.28;1.73;;;;;;;;;;5038250;27;95307;-79
2022/06/18 21:22:27;;;;;;;4.13;1.17;;;;;;;;;;5026137;27;96711;-74
2022/06/18 21:24:53;;;;;;;3.97;1.27;;;;;;;;;;5046706;27;97613;-75
2022/06/18 21:27:20;;;;;;;2.15;1.20;;;;;;;;;;5044769;27;96174;-74
2022/06/18 21:29:47;;;;;;;4.22;1.35;;;;;;;;;;5040195;27;97358;-73
2022/06/18 21:38:04;;;;;;;6.25;1.77;;;;;;;;;;5030109;28;97570;-74
2022/06/18 21:40:33;;;;;;;2.30;1.02;;;;;;;;;;5030714;28;95369;-72
2022/06/18 21:43:00;;;;;;;4.47;1.20;;;;;;;;;;5013714;28;96684;-73
2022/06/18 21:45:26;;;;;;;3.25;1.20;;;;;;;;;;5030930;28;96644;-73
2022/06/18 21:47:56;;;;;;;8.45;1.67;;;;;;;;;;5034256;28;95911;-73
2022/06/18 21:50:26;;;;;;;6.28;1.27;;;;;;;;;;5031259;28;96192;-74
2022/06/18 21:52:53;;;;;;;3.53;1.48;;;;;;;;;;5031634;28;95335;-73
2022/06/18 21:55:20;;;;;;;2.35;1.17;;;;;;;;;;5030937;28;97042;-73
2022/06/18 21:57:50;;;;;;;1.65;0.98;;;;;;;;;;5029807;27;97605;-75
2022/06/18 22:00:20;;;;;;;1.75;1.08;;;;;;;;;;5030043;28;95370;-73
2022/06/18 22:02:47;;;;;;;7.03;1.92;;;;;;;;;;5030876;28;96250;-72
2022/06/18 22:05:17;;;;;;;8.05;1.55;;;;;;;;;;5030678;28;97542;-73
2022/06/18 22:07:43;;;;;;;3.25;1.20;;;;;;;;;;5030612;28;95624;-73
2022/06/18 22:10:09;;;;;;;2.53;0.90;;;;;;;;;;5033886;28;95910;-73
2022/06/18 22:18:09;;;;;;;5.25;1.35;;;;;;;;;;5030219;28;97452;-73
2022/06/18 22:20:37;;;;;;;4.68;1.17;;;;;;;;;;5030674;28;95841;-74
2022/06/18 22:23:03;;;;;;;3.38;1.20;;;;;;;;;;5029846;27;96939;-74
2022/06/18 22:25:31;;;;;;;3.80;1.30;;;;;;;;;;5029579;27;97330;-75
2022/06/18 22:27:58;;;;;;;4.57;1.33;;;;;;;;;;5030651;28;95418;-74
2022/06/18 22:30:24;;;;;;;5.60;1.48;;;;;;;;;;5030700;28;96841;-73
2022/06/18 22:32:51;;;;;;;1.20;0.88;;;;;;;;;;5033855;28;95556;-73
2022/06/18 22:35:20;;;;;;;3.25;1.30;;;;;;;;;;5030006;28;95731;-73
2022/06/18 22:37:47;;;;;;;3.85;1.13;;;;;;;;;;5030784;28;98773;-74
2022/06/18 22:40:14;;;;;;;7.95;1.58;;;;;;;;;;5029864;28;95283;-73
2022/06/18 22:42:43;;;;;;;7.95;2.05;;;;;;;;;;5029429;28;96783;-73
2022/06/18 22:48:37;;;;;;;6.90;1.35;;;;;;;;;;5032741;28;94975;-74
2022/06/18 22:51:04;;;;;;;4.65;1.05;;;;;;;;;;5035652;28;96770;-73
2022/06/18 22:53:31;;;;;;;2.53;1.02;;;;;;;;;;5038444;28;97585;-73
2022/06/18 22:59:25;;;;;;;2.83;0.90;;;;;;;;;;5032204;28;95425;-73
2022/06/18 23:01:54;;;;;;;5.90;1.92;;;;;;;;;;5035390;28;95302;-73
2022/06/18 23:08:12;;;;;;;4.60;1.20;;;;;;;;;;5032187;28;95505;-73
2022/06/18 23:10:40;;;;;;;4.70;1.20;;;;;;;;;;5035224;28;95308;-74
2022/06/18 23:13:07;;;;;;;3.17;1.40;;;;;;;;;;5035255;28;96794;-73
2022/06/18 23:18:56;;;;;;;4.03;1.25;;;;;;;;;;5028845;28;95056;-73
2022/06/18 23:21:22;;;;;;;2.90;1.10;;;;;;;;;;5035017;28;97051;-74
2022/06/18 23:23:48;;;;;;;2.58;1.17;;;;;;;;;;5035102;28;95457;-74
2022/06/18 23:26:14;;;;;;;5.25;1.40;;;;;;;;;;5035015;28;96811;-73
2022/06/18 23:28:43;;;;;;;5.60;1.33;;;;;;;;;;5034717;28;97344;-73
2022/06/18 23:31:10;;;;;;;5.20;1.13;;;;;;;;;;5034977;28;95237;-73
2022/06/18 23:33:37;;;;;;;3.03;1.00;;;;;;;;;;5034366;28;95907;-73
2022/06/18 23:36:04;;;;;;;2.63;1.02;;;;;;;;;;5034808;28;97131;-73
2022/06/18 23:38:30;;;;;;;7.22;1.35;;;;;;;;;;5034926;28;95194;-73
2022/06/18 23:40:57;;;;;;;5.80;1.38;;;;;;;;;;5037245;28;95681;-72
2022/06/18 23:43:23;;;;;;;6.65;1.45;;;;;;;;;;5034799;28;95234;-73
2022/06/18 23:49:17;;;;;;;2.85;0.95;;;;;;;;;;5031492;28;95437;-73
2022/06/18 23:51:44;;;;;;;3.35;1.05;;;;;;;;;;5034581;28;95329;-72
2022/06/18 23:58:21;;;;;;;2.33;0.80;;;;;;;;;;5031416;28;95339;-74
